createdAt,value
2018-04-08T00:01:07.427Z,70.08
2018-04-08T00:03:35.784Z,70.32
2018-04-08T00:06:04.218Z,70.30
2018-04-08T00:08:31.798Z,69.56
2018-04-08T00:10:59.382Z,69.99
2018-04-08T00:13:27.013Z,70.27
2018-04-08T00:15:54.593Z,70.76
2018-04-08T00:18:22.172Z,70.65
2018-04-08T00:20:49.750Z,70.78
2018-04-08T00:23:17.331Z,71.70
2018-04-08T00:25:44.946Z,70.90
2018-04-08T00:28:13.435Z,70.71
2018-04-08T00:30:41.932Z,71.15
2018-04-08T00:33:09.512Z,71.20
2018-04-08T00:35:38.000Z,71.14
2018-04-08T00:38:06.359Z,71.61
2018-04-08T00:40:33.935Z,71.96
2018-04-08T00:43:02.297Z,71.36
2018-04-08T00:45:30.676Z,71.85
2018-04-08T00:47:58.276Z,71.64
2018-04-08T00:50:25.860Z,72.39
2018-04-08T00:52:54.379Z,71.93
2018-04-08T00:55:22.731Z,72.26
2018-04-08T00:57:51.130Z,71.89
2018-04-08T01:00:19.424Z,71.80
2018-04-08T01:02:47.819Z,71.79
2018-04-08T01:05:16.172Z,71.67
2018-04-08T01:07:44.578Z,71.72
2018-04-08T01:10:12.638Z,71.72
2018-04-08T01:12:41.125Z,72.34
2018-04-08T01:15:09.503Z,72.42
2018-04-08T01:17:37.863Z,72.71
2018-04-08T01:20:05.477Z,72.59
2018-04-08T01:22:33.059Z,72.37
2018-04-08T01:25:00.669Z,72.60
2018-04-08T01:27:28.288Z,72.26
2018-04-08T01:29:55.887Z,72.26
2018-04-08T01:32:23.491Z,72.66
2018-04-08T01:34:51.076Z,72.39
2018-04-08T01:37:18.703Z,71.75
2018-04-08T01:39:46.280Z,71.93
2018-04-08T01:42:14.774Z,71.74
2018-04-08T01:44:42.367Z,71.94
2018-04-08T01:47:09.983Z,72.10
2018-04-08T01:49:37.570Z,71.99
2018-04-08T01:52:05.193Z,72.38
2018-04-08T01:54:32.803Z,72.59
2018-04-08T01:57:00.391Z,73.35
2018-04-08T01:59:28.011Z,73.30
2018-04-08T02:01:55.592Z,73.64
2018-04-08T02:04:23.201Z,74.17
2018-04-08T02:06:50.819Z,73.88
2018-04-08T02:09:18.404Z,74.21
2018-04-08T02:11:45.985Z,74.26
2018-04-08T02:14:13.560Z,74.50
2018-04-08T02:16:41.170Z,74.89
2018-04-08T02:19:08.752Z,74.85
2018-04-08T02:21:36.331Z,75.09
2018-04-08T02:24:03.915Z,75.56
2018-04-08T02:26:31.527Z,75.84
2018-04-08T02:28:59.099Z,75.97
2018-04-08T02:31:26.707Z,76.26
2018-04-08T02:33:54.344Z,76.20
2018-04-08T02:36:21.920Z,76.81
2018-04-08T02:38:49.495Z,76.63
2018-04-08T02:41:17.077Z,76.84
2018-04-08T02:43:44.659Z,76.87
2018-04-08T02:46:12.242Z,76.71
2018-04-08T02:48:39.812Z,76.57
2018-04-08T02:51:07.424Z,76.70
2018-04-08T02:53:35.012Z,76.55
2018-04-08T02:56:02.588Z,76.16
2018-04-08T02:58:30.166Z,76.27
2018-04-08T03:00:57.740Z,77.03
2018-04-08T03:03:25.323Z,76.62
2018-04-08T03:05:52.909Z,76.86
2018-04-08T03:08:20.499Z,77.10
2018-04-08T03:10:48.082Z,77.31
2018-04-08T03:13:15.693Z,77.52
2018-04-08T03:15:43.272Z,77.75
2018-04-08T03:18:10.843Z,76.79
2018-04-08T03:20:38.423Z,76.81
2018-04-08T03:23:06.006Z,76.86
2018-04-08T03:25:33.597Z,76.70
2018-04-08T03:28:01.171Z,76.34
2018-04-08T03:30:28.752Z,76.90
2018-04-08T03:32:56.331Z,76.68
2018-04-08T03:35:23.915Z,76.61
2018-04-08T03:37:51.498Z,76.42
2018-04-08T03:40:19.116Z,76.59
2018-04-08T03:42:46.690Z,77.13
2018-04-08T03:45:14.267Z,76.74
2018-04-08T03:47:41.848Z,76.18
2018-04-08T03:50:09.428Z,76.57
2018-04-08T03:52:37.013Z,76.89
2018-04-08T03:55:04.591Z,77.71
2018-04-08T03:57:32.172Z,77.35
2018-04-08T03:59:59.760Z,77.68
2018-04-08T04:02:27.339Z,77.67
2018-04-08T04:04:54.920Z,77.68
2018-04-08T04:07:22.497Z,77.49
2018-04-08T04:09:50.071Z,77.65
2018-04-08T04:12:17.686Z,78.45
2018-04-08T04:14:45.258Z,78.06
2018-04-08T04:17:12.870Z,78.40
2018-04-08T04:19:52.200Z,78.44
2018-04-08T04:22:31.582Z,78.40
2018-04-08T04:25:10.709Z,78.60
2018-04-08T04:27:38.294Z,78.83
2018-04-08T04:30:05.899Z,78.23
2018-04-08T04:32:33.507Z,78.53
2018-04-08T04:35:01.127Z,78.68
2018-04-08T04:37:28.703Z,78.71
2018-04-08T04:39:57.052Z,78.04
2018-04-08T04:42:24.664Z,78.73
2018-04-08T04:44:52.278Z,78.58
2018-04-08T04:47:19.887Z,79.14
2018-04-08T04:49:47.686Z,78.78
2018-04-08T04:52:15.402Z,78.03
2018-04-08T04:54:43.032Z,78.28
2018-04-08T04:57:10.643Z,77.95
2018-04-08T04:59:38.219Z,77.89
2018-04-08T05:02:05.823Z,77.88
2018-04-08T05:04:33.404Z,77.43
2018-04-08T05:07:01.028Z,77.34
2018-04-08T05:09:28.606Z,77.68
2018-04-08T05:11:56.284Z,77.45
2018-04-08T05:14:23.935Z,77.43
2018-04-08T05:16:51.507Z,76.71
2018-04-08T05:19:19.113Z,76.31
2018-04-08T05:21:46.686Z,76.18
2018-04-08T05:24:14.290Z,75.93
2018-04-08T05:26:41.876Z,75.75
2018-04-08T05:29:09.491Z,75.92
2018-04-08T05:31:37.084Z,75.89
2018-04-08T05:34:04.687Z,75.03
2018-04-08T05:36:32.268Z,75.64
2018-04-08T05:38:59.888Z,75.10
2018-04-08T05:41:27.471Z,74.88
2018-04-08T05:43:55.054Z,74.65
2018-04-08T05:46:22.664Z,74.84
2018-04-08T05:48:50.242Z,74.06
2018-04-08T05:51:17.846Z,73.61
2018-04-08T05:53:45.435Z,73.20
2018-04-08T05:56:13.015Z,72.90
2018-04-08T05:58:40.633Z,72.92
2018-04-08T06:01:08.220Z,72.73
2018-04-08T06:03:35.814Z,72.51
2018-04-08T06:06:03.398Z,72.03
2018-04-08T06:08:30.984Z,71.81
2018-04-08T06:10:58.563Z,70.91
2018-04-08T06:13:26.145Z,71.95
2018-04-08T06:15:53.727Z,71.10
2018-04-08T06:18:21.308Z,69.77
2018-04-08T06:20:48.896Z,70.07
2018-04-08T06:23:16.474Z,69.62
2018-04-08T06:25:44.101Z,69.37
2018-04-08T06:28:11.687Z,68.46
2018-04-08T06:30:39.276Z,68.69
2018-04-08T06:33:06.872Z,67.48
2018-04-08T06:35:34.491Z,67.95
2018-04-08T06:38:02.121Z,67.45
2018-04-08T06:40:29.724Z,67.68
2018-04-08T06:42:57.330Z,66.98
2018-04-08T06:45:24.979Z,66.38
2018-04-08T06:47:52.590Z,65.99
2018-04-08T06:50:20.197Z,66.59
2018-04-08T06:52:47.793Z,66.40
2018-04-08T06:55:15.376Z,65.74
2018-04-08T06:57:42.951Z,66.28
2018-04-08T07:00:10.596Z,66.06
2018-04-08T07:02:38.186Z,64.67
2018-04-08T07:05:05.801Z,64.43
2018-04-08T07:07:33.422Z,65.64
2018-04-08T07:10:01.015Z,64.32
2018-04-08T07:12:28.603Z,63.97
2018-04-08T07:14:57.002Z,64.13
2018-04-08T07:17:24.659Z,63.77
2018-04-08T07:19:52.239Z,63.07
2018-04-08T07:22:19.819Z,62.51
2018-04-08T07:24:47.508Z,63.62
2018-04-08T07:27:15.119Z,63.45
2018-04-08T07:29:42.732Z,61.66
2018-04-08T07:32:10.315Z,62.50
2018-04-08T07:34:37.923Z,61.96
2018-04-08T07:37:05.507Z,61.78
2018-04-08T07:39:33.131Z,61.99
2018-04-08T07:42:00.740Z,60.87
2018-04-08T07:44:28.354Z,60.36
2018-04-08T07:46:55.939Z,59.81
2018-04-08T07:49:23.607Z,59.44
2018-04-08T07:51:51.192Z,59.55
2018-04-08T07:54:18.803Z,58.74
2018-04-08T07:56:46.418Z,58.01
2018-04-08T07:59:14.080Z,59.16
2018-04-08T08:01:41.716Z,58.11
2018-04-08T08:04:09.299Z,57.80
2018-04-08T08:06:36.888Z,58.34
2018-04-08T08:09:04.636Z,57.80
2018-04-08T08:11:32.211Z,57.29
2018-04-08T08:13:59.823Z,56.70
2018-04-08T08:16:27.409Z,57.71
2018-04-08T08:18:55.107Z,56.50
2018-04-08T08:21:22.691Z,55.51
2018-04-08T08:23:50.308Z,55.25
2018-04-08T08:26:17.906Z,55.58
2018-04-08T08:28:45.759Z,55.22
2018-04-08T08:31:13.375Z,54.95
2018-04-08T08:33:40.958Z,55.22
2018-04-08T08:36:08.567Z,54.33
2018-04-08T08:38:36.146Z,54.70
2018-04-08T08:41:03.750Z,53.45
2018-04-08T08:43:31.335Z,53.75
2018-04-08T08:45:58.938Z,52.46
2018-04-08T08:48:26.525Z,53.46
2018-04-08T08:50:54.107Z,53.34
2018-04-08T08:53:21.687Z,52.06
2018-04-08T08:55:49.280Z,52.27
2018-04-08T08:58:16.890Z,52.37
2018-04-08T09:00:44.471Z,51.64
2018-04-08T09:03:12.079Z,50.83
2018-04-08T09:05:39.667Z,52.02
2018-04-08T09:08:07.346Z,50.72
2018-04-08T09:10:35.103Z,50.23
2018-04-08T09:13:02.687Z,51.10
2018-04-08T09:15:30.263Z,50.42
2018-04-08T09:17:57.842Z,50.27
2018-04-08T09:20:32.751Z,49.82
2018-04-08T09:26:03.604Z,49.81
2018-04-08T09:28:31.187Z,48.83
2018-04-08T09:30:58.768Z,50.02
2018-04-08T09:33:26.382Z,47.74
2018-04-08T09:35:53.964Z,48.11
2018-04-08T09:38:21.688Z,48.66
2018-04-08T09:40:49.275Z,47.82
2018-04-08T09:43:16.854Z,47.35
2018-04-08T09:45:44.443Z,46.68
2018-04-08T09:48:12.029Z,46.90
2018-04-08T09:50:39.654Z,47.06
2018-04-08T09:53:07.235Z,47.65
2018-04-08T09:55:34.820Z,48.15
2018-04-08T09:58:03.029Z,47.01
2018-04-08T10:00:36.359Z,47.30
2018-04-08T10:06:04.683Z,46.17
2018-04-08T10:08:32.365Z,46.93
2018-04-08T10:10:59.974Z,45.42
2018-04-08T10:13:27.552Z,46.04
2018-04-08T10:15:55.132Z,45.46
2018-04-08T10:18:22.724Z,45.52
2018-04-08T10:20:50.906Z,45.96
2018-04-08T10:23:18.500Z,45.28
2018-04-08T10:25:46.164Z,45.05
2018-04-08T10:28:13.775Z,44.14
2018-04-08T10:30:41.356Z,44.31
2018-04-08T10:33:08.936Z,44.13
2018-04-08T10:35:37.079Z,43.14
2018-04-08T10:38:04.684Z,43.75
2018-04-08T10:40:32.276Z,43.54
2018-04-08T10:42:59.863Z,43.54
2018-04-08T10:45:27.439Z,45.09
2018-04-08T10:47:55.025Z,44.53
2018-04-08T10:50:22.647Z,43.32
2018-04-08T10:52:50.231Z,43.17
2018-04-08T10:55:17.840Z,41.90
2018-04-08T10:57:45.421Z,42.63
2018-04-08T11:00:13.069Z,42.13
2018-04-08T11:02:40.652Z,42.26
2018-04-08T11:05:08.364Z,42.19
2018-04-08T11:07:35.983Z,41.33
2018-04-08T11:10:04.535Z,42.01
2018-04-08T11:12:32.218Z,42.12
2018-04-08T11:14:59.799Z,41.80
2018-04-08T11:17:27.370Z,41.74
2018-04-08T11:19:54.956Z,41.90
2018-04-08T11:22:22.615Z,41.63
2018-04-08T11:24:50.221Z,42.35
2018-04-08T11:27:17.836Z,42.82
2018-04-08T11:29:45.424Z,41.46
2018-04-08T11:32:13.057Z,41.64
2018-04-08T11:34:40.674Z,41.00
2018-04-08T11:37:08.319Z,41.36
2018-04-08T11:39:35.978Z,41.68
2018-04-08T11:42:04.272Z,41.28
2018-04-08T11:44:31.861Z,40.39
2018-04-08T11:46:59.480Z,40.36
2018-04-08T11:49:27.056Z,40.37
2018-04-08T11:51:54.675Z,41.70
2018-04-08T11:54:22.634Z,41.77
2018-04-08T11:56:50.293Z,40.51
2018-04-08T11:59:17.863Z,40.97
2018-04-08T12:01:45.568Z,40.01
2018-04-08T12:04:13.147Z,40.85
2018-04-08T12:06:40.757Z,40.54
2018-04-08T12:09:08.349Z,39.46
2018-04-08T12:11:35.975Z,39.50
2018-04-08T12:14:03.553Z,39.48
2018-04-08T12:16:31.136Z,39.86
2018-04-08T12:18:58.719Z,39.55
2018-04-08T12:21:26.308Z,38.87
2018-04-08T12:23:53.880Z,39.30
2018-04-08T12:26:21.462Z,40.02
2018-04-08T12:28:49.052Z,39.99
2018-04-08T12:31:16.683Z,41.04
2018-04-08T12:33:44.247Z,39.38
2018-04-08T12:36:11.826Z,39.61
2018-04-08T12:38:39.435Z,38.85
2018-04-08T12:41:07.016Z,37.85
2018-04-08T12:43:34.671Z,37.50
2018-04-08T12:46:02.252Z,38.81
2018-04-08T12:48:29.901Z,38.34
2018-04-08T12:50:57.485Z,38.93
2018-04-08T12:53:25.238Z,38.63
2018-04-08T12:55:52.844Z,38.51
2018-04-08T12:58:20.483Z,39.84
2018-04-08T13:00:48.113Z,39.47
2018-04-08T13:03:15.778Z,38.03
2018-04-08T13:05:43.359Z,38.83
2018-04-08T13:08:10.928Z,38.08
2018-04-08T13:10:39.062Z,37.00
2018-04-08T13:13:06.649Z,39.07
2018-04-08T13:15:34.244Z,37.69
2018-04-08T13:18:01.828Z,38.92
2018-04-08T13:20:29.406Z,37.08
2018-04-08T13:22:57.076Z,38.77
2018-04-08T13:25:24.661Z,36.90
2018-04-08T13:27:52.260Z,37.27
2018-04-08T13:30:19.840Z,37.65
2018-04-08T13:32:47.425Z,38.21
2018-04-08T13:35:15.242Z,37.15
2018-04-08T13:37:42.824Z,37.60
2018-04-08T13:40:10.410Z,37.70
2018-04-08T13:42:38.025Z,39.53
2018-04-08T13:45:05.612Z,38.43
2018-04-08T13:47:33.219Z,38.08
2018-04-08T13:50:01.758Z,37.43
2018-04-08T13:52:29.363Z,38.14
2018-04-08T13:54:57.043Z,39.51
2018-04-08T13:57:24.656Z,38.66
2018-04-08T13:59:52.329Z,39.16
2018-04-08T14:02:19.947Z,39.31
2018-04-08T14:04:47.533Z,39.08
2018-04-08T14:07:15.116Z,39.21
2018-04-08T14:09:42.731Z,38.34
2018-04-08T14:12:10.312Z,38.31
2018-04-08T14:14:37.899Z,39.32
2018-04-08T14:17:06.353Z,38.89
2018-04-08T14:19:33.943Z,38.84
2018-04-08T14:22:01.604Z,40.92
2018-04-08T14:24:29.255Z,39.27
2018-04-08T14:26:56.936Z,37.76
2018-04-08T14:29:24.549Z,38.24
2018-04-08T14:31:52.139Z,37.21
2018-04-08T14:34:19.727Z,37.94
2018-04-08T14:36:47.314Z,39.06
2018-04-08T14:39:14.938Z,38.72
2018-04-08T14:41:42.604Z,39.39
2018-04-08T14:44:10.189Z,38.02
2018-04-08T14:46:37.787Z,38.14
2018-04-08T14:49:06.415Z,38.11
2018-04-08T14:51:34.003Z,37.91
2018-04-08T14:54:01.689Z,38.71
2018-04-08T14:56:29.300Z,37.79
2018-04-08T14:58:56.883Z,39.49
2018-04-08T15:01:24.475Z,37.95
2018-04-08T15:03:52.059Z,38.10
2018-04-08T15:06:19.847Z,38.74
2018-04-08T15:08:47.448Z,38.17
2018-04-08T15:11:15.066Z,37.62
2018-04-08T15:13:42.658Z,37.23
2018-04-08T15:16:10.278Z,36.15
2018-04-08T15:18:37.871Z,35.99
2018-04-08T15:21:05.453Z,36.15
2018-04-08T15:23:33.131Z,36.36
2018-04-08T15:26:00.710Z,37.79
2018-04-08T15:28:28.293Z,38.25
2018-04-08T15:30:55.878Z,36.35
2018-04-08T15:33:23.476Z,36.25
2018-04-08T15:35:51.072Z,36.16
2018-04-08T15:38:18.753Z,36.34
2018-04-08T15:40:46.349Z,35.91
2018-04-08T15:43:13.936Z,36.70
2018-04-08T15:45:41.514Z,36.52
2018-04-08T15:48:09.145Z,36.59
2018-04-08T15:50:36.732Z,35.88
2018-04-08T15:53:04.423Z,37.31
2018-04-08T15:55:32.016Z,37.56
2018-04-08T15:57:59.602Z,38.20
2018-04-08T16:00:27.188Z,37.99
2018-04-08T16:02:54.771Z,38.18
2018-04-08T16:05:23.339Z,39.51
2018-04-08T16:07:50.935Z,39.92
2018-04-08T16:10:18.522Z,39.96
2018-04-08T16:12:46.816Z,40.59
2018-04-08T16:15:14.516Z,40.71
2018-04-08T16:17:42.115Z,41.73
2018-04-08T16:20:09.812Z,40.82
2018-04-08T16:22:37.406Z,42.59
2018-04-08T16:25:05.063Z,43.10
2018-04-08T16:27:32.643Z,42.58
2018-04-08T16:30:00.239Z,42.99
2018-04-08T16:32:27.885Z,45.40
2018-04-08T16:34:55.472Z,44.45
2018-04-08T16:37:23.056Z,45.08
2018-04-08T16:39:50.737Z,44.13
2018-04-08T16:42:18.325Z,44.01
2018-04-08T16:44:45.962Z,44.43
2018-04-08T16:47:13.548Z,44.82
2018-04-08T16:49:41.163Z,46.84
2018-04-08T16:52:08.757Z,45.60
2018-04-08T16:54:36.380Z,46.24
2018-04-08T16:57:04.009Z,46.70
2018-04-08T16:59:31.604Z,47.38
2018-04-08T17:01:59.272Z,47.83
2018-04-08T17:04:26.889Z,47.95
2018-04-08T17:06:54.509Z,48.40
2018-04-08T17:09:22.263Z,48.67
2018-04-08T17:11:49.877Z,50.26
2018-04-08T17:14:17.504Z,50.30
2018-04-08T17:16:45.091Z,50.45
2018-04-08T17:19:12.679Z,50.14
2018-04-08T17:21:40.259Z,50.23
2018-04-08T17:24:08.575Z,51.39
2018-04-08T17:26:36.167Z,50.80
2018-04-08T17:29:03.748Z,51.21
2018-04-08T17:31:31.356Z,52.26
2018-04-08T17:33:58.950Z,52.82
2018-04-08T17:36:26.566Z,53.64
2018-04-08T17:38:54.159Z,52.85
2018-04-08T17:41:21.776Z,53.29
2018-04-08T17:43:49.367Z,53.01
2018-04-08T17:46:16.958Z,54.26
2018-04-08T17:48:44.543Z,53.84
2018-04-08T17:51:12.178Z,53.78
2018-04-08T17:53:39.768Z,53.66
2018-04-08T17:56:07.467Z,54.91
2018-04-08T17:58:35.054Z,54.96
2018-04-08T18:01:07.451Z,54.63
2018-04-08T18:03:35.962Z,54.63
2018-04-08T18:06:03.548Z,54.70
2018-04-08T18:08:31.718Z,55.24
2018-04-08T18:10:59.311Z,55.63
2018-04-08T18:13:26.943Z,56.04
2018-04-08T18:15:54.563Z,56.35
2018-04-08T18:18:22.166Z,56.74
2018-04-08T18:20:49.859Z,57.05
2018-04-08T18:23:17.522Z,57.90
2018-04-08T18:25:45.187Z,58.14
2018-04-08T18:28:12.852Z,58.58
2018-04-08T18:30:40.494Z,58.56
2018-04-08T18:33:08.171Z,58.33
2018-04-08T18:35:35.798Z,58.50
2018-04-08T18:38:03.766Z,58.89
2018-04-08T18:40:32.000Z,59.02
2018-04-08T18:43:01.657Z,59.88
2018-04-08T18:45:30.382Z,60.94
2018-04-08T18:48:00.011Z,61.24
2018-04-08T18:50:30.403Z,62.88
2018-04-08T18:53:00.193Z,63.12
2018-04-08T18:55:30.568Z,62.85
2018-04-08T18:57:59.662Z,63.42
2018-04-08T19:00:31.742Z,63.49
2018-04-08T19:03:01.385Z,63.40
2018-04-08T19:05:29.032Z,63.29
2018-04-08T19:07:56.628Z,64.13
2018-04-08T19:10:24.248Z,64.54
2018-04-08T19:12:51.844Z,64.63
2018-04-08T19:15:21.533Z,64.76
2018-04-08T19:17:54.727Z,65.15
2018-04-08T19:20:22.313Z,65.09
2018-04-08T19:22:49.904Z,64.61
2018-04-08T19:25:17.496Z,64.54
2018-04-08T19:27:45.090Z,64.44
2018-04-08T19:30:18.192Z,64.37
2018-04-08T19:32:45.880Z,65.01
2018-04-08T19:35:13.473Z,63.96
2018-04-08T19:37:41.104Z,63.96
2018-04-08T19:40:08.765Z,63.92
2018-04-08T19:42:36.377Z,64.29
2018-04-08T19:45:04.037Z,64.12
2018-04-08T19:47:31.657Z,64.05
2018-04-08T19:49:59.245Z,63.97
2018-04-08T19:52:28.572Z,64.16
2018-04-08T19:55:21.200Z,64.31
2018-04-08T19:57:48.820Z,64.80
2018-04-08T20:00:16.407Z,65.07
2018-04-08T20:02:44.033Z,65.44
2018-04-08T20:05:11.632Z,65.06
2018-04-08T20:07:39.244Z,65.77
2018-04-08T20:10:06.883Z,66.25
2018-04-08T20:12:34.468Z,66.47
2018-04-08T20:15:02.090Z,66.80
2018-04-08T20:17:29.680Z,66.81
2018-04-08T20:19:57.355Z,67.44
2018-04-08T20:22:25.508Z,67.63
2018-04-08T20:24:53.124Z,70.28
2018-04-08T20:27:20.793Z,69.22
2018-04-08T20:29:48.379Z,69.93
2018-04-08T20:32:15.966Z,68.78
2018-04-08T20:34:43.953Z,68.65
2018-04-08T20:37:11.790Z,68.77
2018-04-08T20:39:40.651Z,68.87
2018-04-08T20:42:08.344Z,69.79
2018-04-08T20:44:36.400Z,69.22
2018-04-08T20:47:07.383Z,69.10
2018-04-08T20:49:35.357Z,69.11
2018-04-08T20:52:02.997Z,69.36
2018-04-08T20:54:30.635Z,70.45
2018-04-08T20:56:58.959Z,69.90
2018-04-08T20:59:26.547Z,72.28
2018-04-08T21:01:54.153Z,72.36
2018-04-08T21:04:22.042Z,72.82
2018-04-08T21:06:49.640Z,72.22
2018-04-08T21:09:17.465Z,72.45
2018-04-08T21:11:45.123Z,72.30
2018-04-08T21:14:12.742Z,72.74
2018-04-08T21:16:40.569Z,73.86
2018-04-08T21:19:08.160Z,73.91
2018-04-08T21:21:35.748Z,74.75
2018-04-08T21:24:03.436Z,74.54
2018-04-08T21:26:43.546Z,74.79
2018-04-08T21:29:11.291Z,74.17
2018-04-08T21:31:38.935Z,74.10
2018-04-08T21:34:06.609Z,74.28
2018-04-08T21:36:34.391Z,74.11
2018-04-08T21:39:01.978Z,74.22
2018-04-08T21:41:29.579Z,74.72
2018-04-08T21:43:57.273Z,74.57
2018-04-08T21:46:24.976Z,75.20
2018-04-08T21:48:52.812Z,75.47
2018-04-08T21:51:20.395Z,76.42
2018-04-08T21:53:47.992Z,76.08
2018-04-08T21:56:15.615Z,75.86
2018-04-08T21:58:43.264Z,75.80
2018-04-08T22:01:14.823Z,76.09
2018-04-08T22:03:42.408Z,77.81
2018-04-08T22:06:10.018Z,78.00
2018-04-08T22:08:37.601Z,78.60
2018-04-08T22:11:05.323Z,78.32
2018-04-08T22:13:32.899Z,77.53
2018-04-08T22:16:00.479Z,77.14
2018-04-08T22:18:28.060Z,77.67
2018-04-08T22:20:55.736Z,77.28
2018-04-08T22:23:23.398Z,77.56
2018-04-08T22:25:50.967Z,79.07
2018-04-08T22:28:18.591Z,79.57
2018-04-08T22:30:46.171Z,80.15
2018-04-08T22:33:13.756Z,80.48
2018-04-08T22:35:41.339Z,79.65
2018-04-08T22:38:08.920Z,79.44
2018-04-08T22:40:37.210Z,79.13
2018-04-08T22:43:04.795Z,79.19
2018-04-08T22:45:32.451Z,79.18
2018-04-08T22:48:00.163Z,79.15
2018-04-08T22:50:27.751Z,79.33
2018-04-08T22:52:55.328Z,80.26
2018-04-08T22:55:22.915Z,80.35
2018-04-08T22:57:50.495Z,81.38
2018-04-08T23:00:26.883Z,80.75
2018-04-08T23:02:54.516Z,81.48
2018-04-08T23:05:22.173Z,81.42
2018-04-08T23:07:50.547Z,81.21
2018-04-08T23:10:18.131Z,81.30
2018-04-08T23:12:45.735Z,81.99
2018-04-08T23:15:13.313Z,82.51
2018-04-08T23:17:40.947Z,82.33
2018-04-08T23:20:08.532Z,82.38
2018-04-08T23:22:36.159Z,82.48
2018-04-08T23:25:03.784Z,83.11
2018-04-08T23:27:31.395Z,83.06
2018-04-08T23:29:59.012Z,82.78
2018-04-08T23:32:26.595Z,84.06
2018-04-08T23:34:54.212Z,85.82
2018-04-08T23:37:21.899Z,85.71
2018-04-08T23:39:49.515Z,86.23
2018-04-08T23:42:18.055Z,86.33
2018-04-08T23:44:45.669Z,85.97
2018-04-08T23:47:13.254Z,85.46
2018-04-08T23:49:40.874Z,84.76
2018-04-08T23:52:08.452Z,84.25
2018-04-08T23:54:36.079Z,84.33
2018-04-08T23:57:03.706Z,84.45
2018-04-08T23:59:31.427Z,84.59
